sensor_id;sensor_type;location;lat;lon;timestamp;temperature;humidity
69082;DHT22;68928;51.986;5.760;2023-04-01T00:00:57;10.80;99.90
69082;DHT22;68928;51.986;5.760;2023-04-01T00:03:24;10.80;99.90
69082;DHT22;68928;51.986;5.760;2023-04-01T00:05:50;10.80;99.90
69082;DHT22;68928;51.986;5.760;2023-04-01T00:08:16;10.80;99.90
69082;DHT22;68928;51.986;5.760;2023-04-01T00:10:42;10.80;99.90
69082;DHT22;68928;51.986;5.760;2023-04-01T00:13:08;10.80;99.90
69082;DHT22;68928;51.986;5.760;2023-04-01T00:15:34;10.80;99.90
69082;DHT22;68928;51.986;5.760;2023-04-01T00:18:02;10.70;99.90
69082;DHT22;68928;51.986;5.760;2023-04-01T00:20:28;10.70;99.90
69082;DHT22;68928;51.986;5.760;2023-04-01T00:22:54;10.60;99.90
69082;DHT22;68928;51.986;5.760;2023-04-01T00:25:21;10.80;99.90
69082;DHT22;68928;51.986;5.760;2023-04-01T00:27:47;10.80;99.90
69082;DHT22;68928;51.986;5.760;2023-04-01T00:30:13;10.70;99.90
69082;DHT22;68928;51.986;5.760;2023-04-01T00:32:38;10.70;99.90
69082;DHT22;68928;51.986;5.760;2023-04-01T00:35:04;10.70;99.90
69082;DHT22;68928;51.986;5.760;2023-04-01T00:37:30;10.60;99.90
69082;DHT22;68928;51.986;5.760;2023-04-01T00:39:56;10.60;99.90
69082;DHT22;68928;51.986;5.760;2023-04-01T00:42:22;10.60;99.90
69082;DHT22;68928;51.986;5.760;2023-04-01T00:44:51;10.70;99.90
69082;DHT22;68928;51.986;5.760;2023-04-01T00:47:18;10.70;99.90
69082;DHT22;68928;51.986;5.760;2023-04-01T00:49:47;10.70;99.90
69082;DHT22;68928;51.986;5.760;2023-04-01T00:52:17;10.80;99.90
69082;DHT22;68928;51.986;5.760;2023-04-01T00:54:46;10.80;99.90
69082;DHT22;68928;51.986;5.760;2023-04-01T00:57:41;10.90;99.90
69082;DHT22;68928;51.986;5.760;2023-04-01T01:00:10;10.90;99.90
69082;DHT22;68928;51.986;5.760;2023-04-01T01:02:36;10.80;99.90
69082;DHT22;68928;51.986;5.760;2023-04-01T01:05:02;10.70;99.90
69082;DHT22;68928;51.986;5.760;2023-04-01T01:08:01;10.60;99.90
69082;DHT22;68928;51.986;5.760;2023-04-01T01:10:30;10.70;99.90
69082;DHT22;68928;51.986;5.760;2023-04-01T01:15:55;10.70;99.90
69082;DHT22;68928;51.986;5.760;2023-04-01T01:21:10;10.70;99.90
69082;DHT22;68928;51.986;5.760;2023-04-01T01:24:03;10.80;99.90
69082;DHT22;68928;51.986;5.760;2023-04-01T01:26:50;10.80;99.90
69082;DHT22;68928;51.986;5.760;2023-04-01T01:30:05;10.80;99.90
69082;DHT22;68928;51.986;5.760;2023-04-01T01:32:52;10.80;99.90
69082;DHT22;68928;51.986;5.760;2023-04-01T01:35:26;10.90;99.90
69082;DHT22;68928;51.986;5.760;2023-04-01T01:37:57;10.80;99.90
69082;DHT22;68928;51.986;5.760;2023-04-01T01:40:26;10.70;99.90
69082;DHT22;68928;51.986;5.760;2023-04-01T01:42:56;10.60;99.90
69082;DHT22;68928;51.986;5.760;2023-04-01T01:45:25;10.60;99.90
69082;DHT22;68928;51.986;5.760;2023-04-01T01:47:51;10.70;99.90
69082;DHT22;68928;51.986;5.760;2023-04-01T01:50:18;10.70;99.90
69082;DHT22;68928;51.986;5.760;2023-04-01T01:52:44;10.70;99.90
69082;DHT22;68928;51.986;5.760;2023-04-01T01:55:46;10.70;99.90
69082;DHT22;68928;51.986;5.760;2023-04-01T01:58:22;10.70;99.90
69082;DHT22;68928;51.986;5.760;2023-04-01T02:00:55;10.70;99.90
69082;DHT22;68928;51.986;5.760;2023-04-01T02:03:23;10.60;99.90
69082;DHT22;68928;51.986;5.760;2023-04-01T02:05:51;10.60;99.90
69082;DHT22;68928;51.986;5.760;2023-04-01T02:09:09;10.60;99.90
69082;DHT22;68928;51.986;5.760;2023-04-01T02:11:11;10.60;99.90
69082;DHT22;68928;51.986;5.760;2023-04-01T02:13:40;10.60;99.90
69082;DHT22;68928;51.986;5.760;2023-04-01T02:16:42;10.50;99.90
69082;DHT22;68928;51.986;5.760;2023-04-01T02:19:10;10.50;99.90
69082;DHT22;68928;51.986;5.760;2023-04-01T02:21:39;10.50;99.90
69082;DHT22;68928;51.986;5.760;2023-04-01T02:24:09;10.50;99.90
69082;DHT22;68928;51.986;5.760;2023-04-01T02:26:35;10.60;99.90
69082;DHT22;68928;51.986;5.760;2023-04-01T02:29:02;10.50;99.90
69082;DHT22;68928;51.986;5.760;2023-04-01T02:31:29;10.40;99.90
69082;DHT22;68928;51.986;5.760;2023-04-01T02:33:56;10.40;99.90
69082;DHT22;68928;51.986;5.760;2023-04-01T02:36:22;10.40;99.90
69082;DHT22;68928;51.986;5.760;2023-04-01T02:38:49;10.50;99.90
69082;DHT22;68928;51.986;5.760;2023-04-01T02:41:16;10.50;99.90
69082;DHT22;68928;51.986;5.760;2023-04-01T02:43:42;10.50;99.90
69082;DHT22;68928;51.986;5.760;2023-04-01T02:46:07;10.50;99.90
69082;DHT22;68928;51.986;5.760;2023-04-01T02:48:33;10.40;99.90
69082;DHT22;68928;51.986;5.760;2023-04-01T02:51:02;10.40;99.90
69082;DHT22;68928;51.986;5.760;2023-04-01T02:53:29;10.50;99.90
69082;DHT22;68928;51.986;5.760;2023-04-01T02:55:54;10.40;99.90
69082;DHT22;68928;51.986;5.760;2023-04-01T02:58:21;10.30;99.90
69082;DHT22;68928;51.986;5.760;2023-04-01T03:00:46;10.30;99.90
69082;DHT22;68928;51.986;5.760;2023-04-01T03:03:12;10.30;99.90
69082;DHT22;68928;51.986;5.760;2023-04-01T03:05:39;10.50;99.90
69082;DHT22;68928;51.986;5.760;2023-04-01T03:08:05;10.40;99.90
69082;DHT22;68928;51.986;5.760;2023-04-01T03:10:31;10.50;99.90
69082;DHT22;68928;51.986;5.760;2023-04-01T03:12:57;10.50;99.90
69082;DHT22;68928;51.986;5.760;2023-04-01T03:15:23;10.40;99.90
69082;DHT22;68928;51.986;5.760;2023-04-01T03:17:49;10.40;99.90
69082;DHT22;68928;51.986;5.760;2023-04-01T03:20:16;10.30;99.90
69082;DHT22;68928;51.986;5.760;2023-04-01T03:22:42;10.20;99.90
69082;DHT22;68928;51.986;5.760;2023-04-01T03:25:08;10.20;99.90
69082;DHT22;68928;51.986;5.760;2023-04-01T03:27:35;10.20;99.90
69082;DHT22;68928;51.986;5.760;2023-04-01T03:30:05;10.30;99.90
69082;DHT22;68928;51.986;5.760;2023-04-01T03:32:31;10.20;99.90
69082;DHT22;68928;51.986;5.760;2023-04-01T03:34:57;10.30;99.90
69082;DHT22;68928;51.986;5.760;2023-04-01T03:37:23;10.30;99.90
69082;DHT22;68928;51.986;5.760;2023-04-01T03:39:49;10.20;99.90
69082;DHT22;68928;51.986;5.760;2023-04-01T03:42:15;10.20;99.90
69082;DHT22;68928;51.986;5.760;2023-04-01T03:44:40;10.10;99.90
69082;DHT22;68928;51.986;5.760;2023-04-01T03:47:06;10.20;99.90
69082;DHT22;68928;51.986;5.760;2023-04-01T03:49:32;10.20;99.90
69082;DHT22;68928;51.986;5.760;2023-04-01T03:51:58;10.20;99.90
69082;DHT22;68928;51.986;5.760;2023-04-01T03:54:24;10.20;99.90
69082;DHT22;68928;51.986;5.760;2023-04-01T03:56:49;10.10;99.90
69082;DHT22;68928;51.986;5.760;2023-04-01T03:59:15;10.20;99.90
69082;DHT22;68928;51.986;5.760;2023-04-01T04:01:41;10.10;99.90
69082;DHT22;68928;51.986;5.760;2023-04-01T04:04:07;10.10;99.90
69082;DHT22;68928;51.986;5.760;2023-04-01T04:06:33;10.00;99.90
69082;DHT22;68928;51.986;5.760;2023-04-01T04:08:58;10.10;99.90
69082;DHT22;68928;51.986;5.760;2023-04-01T04:11:24;10.10;99.90
69082;DHT22;68928;51.986;5.760;2023-04-01T04:13:51;10.10;99.90
69082;DHT22;68928;51.986;5.760;2023-04-01T04:16:18;10.10;99.90
69082;DHT22;68928;51.986;5.760;2023-04-01T04:18:43;10.10;99.90
69082;DHT22;68928;51.986;5.760;2023-04-01T04:21:13;10.10;99.90
69082;DHT22;68928;51.986;5.760;2023-04-01T04:23:39;10.20;99.90
69082;DHT22;68928;51.986;5.760;2023-04-01T04:26:09;10.10;99.90
69082;DHT22;68928;51.986;5.760;2023-04-01T04:28:35;10.00;99.90
69082;DHT22;68928;51.986;5.760;2023-04-01T04:31:02;10.00;99.90
69082;DHT22;68928;51.986;5.760;2023-04-01T04:33:30;9.90;99.90
69082;DHT22;68928;51.986;5.760;2023-04-01T04:35:56;10.00;99.90
69082;DHT22;68928;51.986;5.760;2023-04-01T04:38:22;10.00;99.90
69082;DHT22;68928;51.986;5.760;2023-04-01T04:40:48;10.00;99.90
69082;DHT22;68928;51.986;5.760;2023-04-01T04:43:15;9.90;99.90
69082;DHT22;68928;51.986;5.760;2023-04-01T04:45:41;9.90;99.90
69082;DHT22;68928;51.986;5.760;2023-04-01T04:48:11;9.90;99.90
69082;DHT22;68928;51.986;5.760;2023-04-01T04:50:41;9.90;99.90
69082;DHT22;68928;51.986;5.760;2023-04-01T04:53:10;9.90;99.90
69082;DHT22;68928;51.986;5.760;2023-04-01T04:55:36;10.00;99.90
69082;DHT22;68928;51.986;5.760;2023-04-01T04:58:01;10.10;99.90
69082;DHT22;68928;51.986;5.760;2023-04-01T05:00:27;10.10;99.90
69082;DHT22;68928;51.986;5.760;2023-04-01T05:02:56;10.20;99.90
69082;DHT22;68928;51.986;5.760;2023-04-01T05:05:21;10.00;99.90
69082;DHT22;68928;51.986;5.760;2023-04-01T05:07:48;10.00;99.90
69082;DHT22;68928;51.986;5.760;2023-04-01T05:10:15;10.10;99.90
69082;DHT22;68928;51.986;5.760;2023-04-01T05:12:41;10.10;99.90
69082;DHT22;68928;51.986;5.760;2023-04-01T05:15:07;10.10;99.90
69082;DHT22;68928;51.986;5.760;2023-04-01T05:17:33;10.10;99.90
69082;DHT22;68928;51.986;5.760;2023-04-01T05:19:59;10.10;99.90
69082;DHT22;68928;51.986;5.760;2023-04-01T05:22:25;10.10;99.90
69082;DHT22;68928;51.986;5.760;2023-04-01T05:24:54;10.10;99.90
69082;DHT22;68928;51.986;5.760;2023-04-01T05:27:22;10.10;99.90
69082;DHT22;68928;51.986;5.760;2023-04-01T05:29:47;10.10;99.90
69082;DHT22;68928;51.986;5.760;2023-04-01T05:32:13;10.10;99.90
69082;DHT22;68928;51.986;5.760;2023-04-01T05:34:38;10.10;99.90
69082;DHT22;68928;51.986;5.760;2023-04-01T05:37:04;10.10;99.90
69082;DHT22;68928;51.986;5.760;2023-04-01T05:39:36;10.20;99.90
69082;DHT22;68928;51.986;5.760;2023-04-01T05:42:02;10.20;99.90
69082;DHT22;68928;51.986;5.760;2023-04-01T05:44:28;10.20;99.90
69082;DHT22;68928;51.986;5.760;2023-04-01T05:46:54;10.30;99.90
69082;DHT22;68928;51.986;5.760;2023-04-01T05:49:19;10.30;99.90
69082;DHT22;68928;51.986;5.760;2023-04-01T05:51:45;10.40;99.90
69082;DHT22;68928;51.986;5.760;2023-04-01T05:54:10;10.40;99.90
69082;DHT22;68928;51.986;5.760;2023-04-01T05:56:36;10.40;99.90
69082;DHT22;68928;51.986;5.760;2023-04-01T05:59:02;10.40;99.90
69082;DHT22;68928;51.986;5.760;2023-04-01T06:02:01;10.50;99.90
69082;DHT22;68928;51.986;5.760;2023-04-01T06:04:47;10.40;99.90
69082;DHT22;68928;51.986;5.760;2023-04-01T06:07:14;10.50;99.90
69082;DHT22;68928;51.986;5.760;2023-04-01T06:09:40;10.50;99.90
69082;DHT22;68928;51.986;5.760;2023-04-01T06:17:41;10.50;99.90
69082;DHT22;68928;51.986;5.760;2023-04-01T06:20:35;10.50;99.90
69082;DHT22;68928;51.986;5.760;2023-04-01T06:25:57;10.50;99.90
69082;DHT22;68928;51.986;5.760;2023-04-01T06:28:59;10.60;99.90
69082;DHT22;68928;51.986;5.760;2023-04-01T06:31:42;10.70;99.90
69082;DHT22;68928;51.986;5.760;2023-04-01T06:39:48;10.80;99.90
69082;DHT22;68928;51.986;5.760;2023-04-01T06:44:56;10.80;99.90
69082;DHT22;68928;51.986;5.760;2023-04-01T06:47:32;10.90;99.90
69082;DHT22;68928;51.986;5.760;2023-04-01T06:50:03;10.90;99.90
69082;DHT22;68928;51.986;5.760;2023-04-01T06:55:57;11.00;99.90
69082;DHT22;68928;51.986;5.760;2023-04-01T06:58:26;11.00;99.90
69082;DHT22;68928;51.986;5.760;2023-04-01T07:00:56;11.10;99.90
69082;DHT22;68928;51.986;5.760;2023-04-01T07:06:02;11.10;99.90
69082;DHT22;68928;51.986;5.760;2023-04-01T07:08:28;11.10;99.90
69082;DHT22;68928;51.986;5.760;2023-04-01T07:11:05;11.10;99.90
69082;DHT22;68928;51.986;5.760;2023-04-01T07:14:18;11.10;99.90
69082;DHT22;68928;51.986;5.760;2023-04-01T07:17:00;11.10;99.90
69082;DHT22;68928;51.986;5.760;2023-04-01T07:22:23;11.10;99.90
69082;DHT22;68928;51.986;5.760;2023-04-01T07:24:53;11.30;99.90
69082;DHT22;68928;51.986;5.760;2023-04-01T07:27:19;11.20;99.90
69082;DHT22;68928;51.986;5.760;2023-04-01T07:29:45;11.30;99.90
69082;DHT22;68928;51.986;5.760;2023-04-01T07:37:41;11.50;99.90
69082;DHT22;68928;51.986;5.760;2023-04-01T07:45:43;11.50;99.90
69082;DHT22;68928;51.986;5.760;2023-04-01T07:50:56;11.60;99.90
69082;DHT22;68928;51.986;5.760;2023-04-01T07:54:16;11.50;99.90
69082;DHT22;68928;51.986;5.760;2023-04-01T07:56:37;11.60;99.90
69082;DHT22;68928;51.986;5.760;2023-04-01T08:04:58;11.60;99.90
69082;DHT22;68928;51.986;5.760;2023-04-01T08:07:40;11.60;99.90
69082;DHT22;68928;51.986;5.760;2023-04-01T08:15:56;11.80;99.90
69082;DHT22;68928;51.986;5.760;2023-04-01T08:23:47;11.90;99.90
69082;DHT22;68928;51.986;5.760;2023-04-01T08:28:59;12.00;99.90
69082;DHT22;68928;51.986;5.760;2023-04-01T08:34:19;12.10;99.90
69082;DHT22;68928;51.986;5.760;2023-04-01T08:36:52;12.10;99.90
69082;DHT22;68928;51.986;5.760;2023-04-01T08:39:37;12.10;99.90
69082;DHT22;68928;51.986;5.760;2023-04-01T08:42:37;12.10;99.90
69082;DHT22;68928;51.986;5.760;2023-04-01T08:54:06;12.30;99.90
69082;DHT22;68928;51.986;5.760;2023-04-01T08:56:41;12.40;99.90
69082;DHT22;68928;51.986;5.760;2023-04-01T08:59:44;12.40;99.90
69082;DHT22;68928;51.986;5.760;2023-04-01T09:02:40;12.50;99.90
69082;DHT22;68928;51.986;5.760;2023-04-01T09:11:16;12.50;99.90
69082;DHT22;68928;51.986;5.760;2023-04-01T09:16:51;12.40;99.90
69082;DHT22;68928;51.986;5.760;2023-04-01T09:19:33;12.40;99.90
69082;DHT22;68928;51.986;5.760;2023-04-01T09:41:51;12.70;99.90
69082;DHT22;68928;51.986;5.760;2023-04-01T09:52:44;12.70;99.90
69082;DHT22;68928;51.986;5.760;2023-04-01T09:58:37;12.90;99.90
69082;DHT22;68928;51.986;5.760;2023-04-01T10:12:52;13.10;99.90
69082;DHT22;68928;51.986;5.760;2023-04-01T10:29:21;14.30;99.90
69082;DHT22;68928;51.986;5.760;2023-04-01T10:34:48;14.10;99.90
69082;DHT22;68928;51.986;5.760;2023-04-01T10:43:25;14.30;99.90
69082;DHT22;68928;51.986;5.760;2023-04-01T11:02:16;14.40;99.90
69082;DHT22;68928;51.986;5.760;2023-04-01T11:13:55;14.60;99.90
69082;DHT22;68928;51.986;5.760;2023-04-01T11:16:56;14.60;99.90
69082;DHT22;68928;51.986;5.760;2023-04-01T11:22:24;14.60;99.90
69082;DHT22;68928;51.986;5.760;2023-04-01T11:39:39;15.20;99.70
69082;DHT22;68928;51.986;5.760;2023-04-01T11:53:47;15.40;99.90
69082;DHT22;68928;51.986;5.760;2023-04-01T11:56:26;15.30;99.40
69082;DHT22;68928;51.986;5.760;2023-04-01T11:59:32;15.30;99.90
69082;DHT22;68928;51.986;5.760;2023-04-01T12:02:25;15.10;99.90
69082;DHT22;68928;51.986;5.760;2023-04-01T12:05:22;15.00;99.90
69082;DHT22;68928;51.986;5.760;2023-04-01T12:08:03;15.00;99.90
69082;DHT22;68928;51.986;5.760;2023-04-01T12:10:40;14.90;99.90
69082;DHT22;68928;51.986;5.760;2023-04-01T12:16:05;14.80;99.90
69082;DHT22;68928;51.986;5.760;2023-04-01T12:18:46;14.70;99.90
69082;DHT22;68928;51.986;5.760;2023-04-01T12:21:38;14.60;99.90
69082;DHT22;68928;51.986;5.760;2023-04-01T12:27:19;14.50;99.90
69082;DHT22;68928;51.986;5.760;2023-04-01T12:30:14;14.50;99.90
69082;DHT22;68928;51.986;5.760;2023-04-01T12:41:26;14.30;99.90
69082;DHT22;68928;51.986;5.760;2023-04-01T12:52:10;14.40;99.90
69082;DHT22;68928;51.986;5.760;2023-04-01T13:00:39;14.50;99.70
69082;DHT22;68928;51.986;5.760;2023-04-01T13:16:42;14.20;99.90
69082;DHT22;68928;51.986;5.760;2023-04-01T13:19:35;14.10;99.90
69082;DHT22;68928;51.986;5.760;2023-04-01T13:25:01;13.90;99.90
69082;DHT22;68928;51.986;5.760;2023-04-01T13:27:38;13.80;99.90
69082;DHT22;68928;51.986;5.760;2023-04-01T13:30:26;13.80;99.90
69082;DHT22;68928;51.986;5.760;2023-04-01T13:33:10;13.80;99.90
69082;DHT22;68928;51.986;5.760;2023-04-01T13:41:51;13.80;99.90
69082;DHT22;68928;51.986;5.760;2023-04-01T13:47:40;13.70;99.90
69082;DHT22;68928;51.986;5.760;2023-04-01T13:50:54;13.80;99.90
69082;DHT22;68928;51.986;5.760;2023-04-01T14:01:59;13.80;99.90
69082;DHT22;68928;51.986;5.760;2023-04-01T14:08:51;13.80;99.90
69082;DHT22;68928;51.986;5.760;2023-04-01T14:11:11;13.70;99.90
69082;DHT22;68928;51.986;5.760;2023-04-01T14:13:59;13.70;99.90
69082;DHT22;68928;51.986;5.760;2023-04-01T14:19:24;13.60;99.90
69082;DHT22;68928;51.986;5.760;2023-04-01T14:22:18;13.60;99.90
69082;DHT22;68928;51.986;5.760;2023-04-01T14:24:58;13.60;99.90
69082;DHT22;68928;51.986;5.760;2023-04-01T14:30:23;13.60;99.90
69082;DHT22;68928;51.986;5.760;2023-04-01T14:35:58;13.50;99.90
69082;DHT22;68928;51.986;5.760;2023-04-01T14:38:40;13.50;99.90
69082;DHT22;68928;51.986;5.760;2023-04-01T14:49:48;13.40;99.90
69082;DHT22;68928;51.986;5.760;2023-04-01T14:52:28;13.40;99.90
69082;DHT22;68928;51.986;5.760;2023-04-01T14:54:54;13.40;99.90
69082;DHT22;68928;51.986;5.760;2023-04-01T14:57:27;13.30;99.90
69082;DHT22;68928;51.986;5.760;2023-04-01T15:05:32;13.50;99.90
69082;DHT22;68928;51.986;5.760;2023-04-01T15:08:06;13.50;99.90
69082;DHT22;68928;51.986;5.760;2023-04-01T15:19:09;13.70;99.90
69082;DHT22;68928;51.986;5.760;2023-04-01T15:24:26;13.80;99.90
69082;DHT22;68928;51.986;5.760;2023-04-01T15:27:14;13.80;99.90
69082;DHT22;68928;51.986;5.760;2023-04-01T15:41:03;13.80;99.90
69082;DHT22;68928;51.986;5.760;2023-04-01T15:43:41;13.80;99.90
69082;DHT22;68928;51.986;5.760;2023-04-01T15:46:40;13.70;99.90
69082;DHT22;68928;51.986;5.760;2023-04-01T15:49:48;13.70;99.90
69082;DHT22;68928;51.986;5.760;2023-04-01T15:52:23;13.70;99.90
69082;DHT22;68928;51.986;5.760;2023-04-01T16:03:19;13.70;99.90
69082;DHT22;68928;51.986;5.760;2023-04-01T16:21:52;13.60;99.90
69082;DHT22;68928;51.986;5.760;2023-04-01T16:24:38;13.60;99.90
69082;DHT22;68928;51.986;5.760;2023-04-01T16:27:24;13.50;99.90
69082;DHT22;68928;51.986;5.760;2023-04-01T16:33:19;13.50;99.90
69082;DHT22;68928;51.986;5.760;2023-04-01T16:35:59;13.50;99.90
69082;DHT22;68928;51.986;5.760;2023-04-01T16:41:11;13.50;99.90
69082;DHT22;68928;51.986;5.760;2023-04-01T16:43:49;13.40;99.90
69082;DHT22;68928;51.986;5.760;2023-04-01T16:46:41;13.40;99.90
69082;DHT22;68928;51.986;5.760;2023-04-01T16:54:46;13.30;99.90
69082;DHT22;68928;51.986;5.760;2023-04-01T16:57:51;13.40;99.90
69082;DHT22;68928;51.986;5.760;2023-04-01T17:00:36;13.30;99.90
69082;DHT22;68928;51.986;5.760;2023-04-01T17:11:53;13.20;99.90
69082;DHT22;68928;51.986;5.760;2023-04-01T17:14:58;13.40;99.90
69082;DHT22;68928;51.986;5.760;2023-04-01T17:20:20;13.20;99.90
69082;DHT22;68928;51.986;5.760;2023-04-01T17:26:13;13.00;99.90
69082;DHT22;68928;51.986;5.760;2023-04-01T17:36:33;13.00;99.90
69082;DHT22;68928;51.986;5.760;2023-04-01T18:00:33;12.70;99.90
69082;DHT22;68928;51.986;5.760;2023-04-01T18:22:48;12.30;99.90
69082;DHT22;68928;51.986;5.760;2023-04-01T18:25:39;12.40;99.90
69082;DHT22;68928;51.986;5.760;2023-04-01T18:36:24;12.20;99.90
69082;DHT22;68928;51.986;5.760;2023-04-01T18:39:00;12.30;99.90
69082;DHT22;68928;51.986;5.760;2023-04-01T18:42:16;12.20;99.90
69082;DHT22;68928;51.986;5.760;2023-04-01T18:44:27;12.20;99.90
69082;DHT22;68928;51.986;5.760;2023-04-01T18:48:14;12.10;99.90
69082;DHT22;68928;51.986;5.760;2023-04-01T18:52:47;12.00;99.90
69082;DHT22;68928;51.986;5.760;2023-04-01T19:00:42;12.10;99.90
69082;DHT22;68928;51.986;5.760;2023-04-01T19:03:23;12.20;99.90
69082;DHT22;68928;51.986;5.760;2023-04-01T19:05:53;12.10;99.90
69082;DHT22;68928;51.986;5.760;2023-04-01T19:08:35;12.00;99.90
69082;DHT22;68928;51.986;5.760;2023-04-01T19:25:15;12.10;99.90
69082;DHT22;68928;51.986;5.760;2023-04-01T19:27:49;12.10;99.90
69082;DHT22;68928;51.986;5.760;2023-04-01T19:42:21;12.10;99.90
69082;DHT22;68928;51.986;5.760;2023-04-01T19:48:32;11.90;99.90
69082;DHT22;68928;51.986;5.760;2023-04-01T19:53:58;11.70;99.90
69082;DHT22;68928;51.986;5.760;2023-04-01T19:56:52;11.50;99.90
69082;DHT22;68928;51.986;5.760;2023-04-01T20:04:35;11.70;99.90
69082;DHT22;68928;51.986;5.760;2023-04-01T20:10:05;11.60;99.90
69082;DHT22;68928;51.986;5.760;2023-04-01T20:15:32;11.70;99.90
69082;DHT22;68928;51.986;5.760;2023-04-01T20:18:02;11.50;99.90
69082;DHT22;68928;51.986;5.760;2023-04-01T20:20:30;11.40;99.90
69082;DHT22;68928;51.986;5.760;2023-04-01T20:25:52;11.30;99.90
69082;DHT22;68928;51.986;5.760;2023-04-01T20:33:48;11.30;99.90
69082;DHT22;68928;51.986;5.760;2023-04-01T20:39:34;11.20;99.90
69082;DHT22;68928;51.986;5.760;2023-04-01T20:42:12;11.10;99.90
69082;DHT22;68928;51.986;5.760;2023-04-01T20:44:47;11.10;99.90
69082;DHT22;68928;51.986;5.760;2023-04-01T20:47:45;11.20;99.90
69082;DHT22;68928;51.986;5.760;2023-04-01T20:50:28;11.20;99.90
69082;DHT22;68928;51.986;5.760;2023-04-01T20:58:50;11.10;99.90
69082;DHT22;68928;51.986;5.760;2023-04-01T21:04:23;11.10;99.90
69082;DHT22;68928;51.986;5.760;2023-04-01T21:06:59;10.90;99.90
69082;DHT22;68928;51.986;5.760;2023-04-01T21:23:37;10.70;99.90
69082;DHT22;68928;51.986;5.760;2023-04-01T21:27:07;10.70;99.90
69082;DHT22;68928;51.986;5.760;2023-04-01T21:29:30;10.70;99.90
69082;DHT22;68928;51.986;5.760;2023-04-01T21:34:52;10.50;99.90
69082;DHT22;68928;51.986;5.760;2023-04-01T21:40:22;10.40;99.90
69082;DHT22;68928;51.986;5.760;2023-04-01T21:48:47;10.30;99.90
69082;DHT22;68928;51.986;5.760;2023-04-01T22:13:37;10.00;99.90
69082;DHT22;68928;51.986;5.760;2023-04-01T22:21:50;9.90;99.90
69082;DHT22;68928;51.986;5.760;2023-04-01T22:29:52;9.90;99.90
69082;DHT22;68928;51.986;5.760;2023-04-01T22:32:56;9.70;99.90
69082;DHT22;68928;51.986;5.760;2023-04-01T22:40:25;9.80;99.90
69082;DHT22;68928;51.986;5.760;2023-04-01T22:43:03;9.80;99.90
69082;DHT22;68928;51.986;5.760;2023-04-01T22:45:56;9.70;99.90
69082;DHT22;68928;51.986;5.760;2023-04-01T22:48:46;9.60;99.90
69082;DHT22;68928;51.986;5.760;2023-04-01T22:51:22;9.50;99.90
69082;DHT22;68928;51.986;5.760;2023-04-01T22:53:59;9.50;99.90
69082;DHT22;68928;51.986;5.760;2023-04-01T22:56:37;9.50;99.90
69082;DHT22;68928;51.986;5.760;2023-04-01T22:59:16;9.50;99.90
69082;DHT22;68928;51.986;5.760;2023-04-01T23:01:53;9.50;99.90
69082;DHT22;68928;51.986;5.760;2023-04-01T23:04:28;9.50;99.90
69082;DHT22;68928;51.986;5.760;2023-04-01T23:06:59;9.50;99.90
69082;DHT22;68928;51.986;5.760;2023-04-01T23:09:28;9.40;99.90
69082;DHT22;68928;51.986;5.760;2023-04-01T23:12:05;9.40;99.90
69082;DHT22;68928;51.986;5.760;2023-04-01T23:14:56;9.40;99.90
69082;DHT22;68928;51.986;5.760;2023-04-01T23:23:11;9.30;99.90
69082;DHT22;68928;51.986;5.760;2023-04-01T23:25:46;9.20;99.90
69082;DHT22;68928;51.986;5.760;2023-04-01T23:38:33;9.10;99.90
69082;DHT22;68928;51.986;5.760;2023-04-01T23:41:00;9.10;99.90
69082;DHT22;68928;51.986;5.760;2023-04-01T23:43:40;9.10;99.90
69082;DHT22;68928;51.986;5.760;2023-04-01T23:46:07;9.00;99.90
69082;DHT22;68928;51.986;5.760;2023-04-01T23:48:39;9.00;99.90
69082;DHT22;68928;51.986;5.760;2023-04-01T23:53:47;9.00;99.90
69082;DHT22;68928;51.986;5.760;2023-04-01T23:56:20;9.00;99.90
69082;DHT22;68928;51.986;5.760;2023-04-01T23:58:49;9.00;99.90
